createdAt,value
2017-09-08T00:00:01.400Z,0
2017-09-08T00:01:10.230Z,0
2017-09-08T00:02:19.059Z,0
2017-09-08T00:03:27.892Z,0
2017-09-08T00:04:36.716Z,0
2017-09-08T00:05:45.551Z,0
2017-09-08T00:06:54.384Z,0
2017-09-08T00:08:03.220Z,0
2017-09-08T00:09:12.043Z,0
2017-09-08T00:10:20.867Z,0
2017-09-08T00:11:29.699Z,0
2017-09-08T00:12:38.524Z,0
2017-09-08T00:13:47.362Z,0
2017-09-08T00:14:56.183Z,0
2017-09-08T00:16:05.015Z,0
2017-09-08T00:17:13.852Z,0
2017-09-08T00:18:22.679Z,0
2017-09-08T00:19:31.508Z,0
2017-09-08T00:20:40.333Z,0
2017-09-08T00:21:49.161Z,0
2017-09-08T00:22:57.993Z,0
2017-09-08T00:24:06.821Z,0
2017-09-08T00:25:15.650Z,0
2017-09-08T00:26:24.481Z,0
2017-09-08T00:27:33.302Z,0
2017-09-08T00:28:42.128Z,0
2017-09-08T00:29:51.289Z,0
2017-09-08T00:31:00.111Z,0
2017-09-08T00:32:08.938Z,0
2017-09-08T00:33:18.411Z,0
2017-09-08T00:34:27.242Z,0
2017-09-08T00:35:36.070Z,0
2017-09-08T00:36:44.898Z,0
2017-09-08T00:37:53.729Z,0
2017-09-08T00:39:02.555Z,0
2017-09-08T00:40:11.385Z,0
2017-09-08T00:41:20.541Z,0
2017-09-08T00:42:29.373Z,0
2017-09-08T00:43:38.200Z,0
2017-09-08T00:44:47.353Z,0
2017-09-08T00:45:56.181Z,0
2017-09-08T00:47:05.011Z,0
2017-09-08T00:48:13.842Z,0
2017-09-08T00:49:22.993Z,0
2017-09-08T00:50:31.819Z,0
2017-09-08T00:51:40.650Z,0
2017-09-08T00:52:49.479Z,0
2017-09-08T00:53:58.305Z,0
2017-09-08T00:55:07.134Z,0
2017-09-08T00:56:15.966Z,0
2017-09-08T00:57:24.797Z,0
2017-09-08T00:58:33.629Z,0
2017-09-08T00:59:42.456Z,0
2017-09-08T01:00:51.284Z,0
2017-09-08T01:02:00.114Z,0
2017-09-08T01:03:08.938Z,0
2017-09-08T01:04:17.774Z,0
2017-09-08T01:05:26.604Z,0
2017-09-08T01:06:35.431Z,0
2017-09-08T01:07:44.257Z,0
2017-09-08T01:08:53.086Z,0
2017-09-08T01:10:01.913Z,0
2017-09-08T01:11:10.742Z,0
2017-09-08T01:12:19.575Z,0
2017-09-08T01:13:28.407Z,0
2017-09-08T01:14:37.231Z,0
2017-09-08T01:15:46.061Z,0
2017-09-08T01:16:54.892Z,0
2017-09-08T01:18:04.040Z,0
2017-09-08T01:19:12.874Z,0
2017-09-08T01:20:21.699Z,0
2017-09-08T01:21:30.533Z,0
2017-09-08T01:22:39.357Z,0
2017-09-08T01:23:48.190Z,0
2017-09-08T01:24:57.020Z,0
2017-09-08T01:26:05.849Z,0
2017-09-08T01:27:14.674Z,0
2017-09-08T01:28:23.498Z,0
2017-09-08T01:29:32.332Z,0
2017-09-08T01:30:41.171Z,0
2017-09-08T01:31:50.318Z,0
2017-09-08T01:32:59.145Z,0
2017-09-08T01:34:07.968Z,0
2017-09-08T01:35:16.799Z,0
2017-09-08T01:36:25.630Z,0
2017-09-08T01:37:34.461Z,0
2017-09-08T01:38:43.285Z,0
2017-09-08T01:39:52.117Z,0
2017-09-08T01:41:00.945Z,0
2017-09-08T01:42:09.774Z,0
2017-09-08T01:43:18.603Z,0
2017-09-08T01:44:27.429Z,0
2017-09-08T01:45:36.254Z,0
2017-09-08T01:46:45.086Z,0
2017-09-08T01:47:53.911Z,0
2017-09-08T01:49:02.743Z,0
2017-09-08T01:50:11.568Z,0
2017-09-08T01:51:20.402Z,0
2017-09-08T01:52:29.226Z,0
2017-09-08T01:53:38.058Z,0
2017-09-08T01:54:46.883Z,0
2017-09-08T01:55:55.712Z,0
2017-09-08T01:57:04.541Z,0
2017-09-08T01:58:13.370Z,0
2017-09-08T01:59:22.200Z,0
2017-09-08T02:00:31.029Z,0
2017-09-08T02:01:40.179Z,0
2017-09-08T02:02:49.004Z,0
2017-09-08T02:03:57.834Z,0
2017-09-08T02:05:06.663Z,0
2017-09-08T02:06:15.490Z,0
2017-09-08T02:07:24.643Z,0
2017-09-08T02:08:33.470Z,0
2017-09-08T02:09:42.298Z,0
2017-09-08T02:10:51.128Z,0
2017-09-08T02:11:59.954Z,0
2017-09-08T02:13:09.112Z,0
2017-09-08T02:14:17.942Z,0
2017-09-08T02:15:26.771Z,0
2017-09-08T02:16:35.627Z,0
2017-09-08T02:17:44.424Z,0
2017-09-08T02:18:53.257Z,0
2017-09-08T02:20:02.086Z,0
2017-09-08T02:21:10.919Z,0
2017-09-08T02:22:19.752Z,0
2017-09-08T02:23:28.582Z,0
2017-09-08T02:24:37.407Z,0
2017-09-08T02:25:46.235Z,0
2017-09-08T02:26:55.067Z,0
2017-09-08T02:28:03.898Z,0
2017-09-08T02:29:12.722Z,0
2017-09-08T02:30:21.887Z,0
2017-09-08T02:31:30.716Z,0
2017-09-08T02:32:39.553Z,0
2017-09-08T02:33:48.376Z,0
2017-09-08T02:34:57.210Z,0
2017-09-08T02:36:06.031Z,0
2017-09-08T02:37:14.860Z,0
2017-09-08T02:38:23.683Z,0
2017-09-08T02:39:32.513Z,0
2017-09-08T02:40:41.344Z,0
2017-09-08T02:41:50.171Z,0
2017-09-08T02:42:58.999Z,0
2017-09-08T02:44:07.825Z,0
2017-09-08T02:45:16.653Z,0
2017-09-08T02:46:25.479Z,0
2017-09-08T02:47:34.303Z,0
2017-09-08T02:48:43.138Z,0
2017-09-08T02:49:51.958Z,0
2017-09-08T02:51:00.786Z,0
2017-09-08T02:52:09.615Z,0
2017-09-08T02:53:18.446Z,0
2017-09-08T02:54:27.276Z,0
2017-09-08T02:55:36.103Z,0
2017-09-08T02:56:44.929Z,0
2017-09-08T02:57:53.756Z,0
2017-09-08T02:59:02.586Z,0
2017-09-08T03:00:11.413Z,0
2017-09-08T03:01:20.244Z,0
2017-09-08T03:02:29.074Z,0
2017-09-08T03:03:38.257Z,0
2017-09-08T03:04:47.085Z,0
2017-09-08T03:05:55.910Z,0
2017-09-08T03:07:04.737Z,0
2017-09-08T03:08:13.565Z,0
2017-09-08T03:09:22.395Z,0
2017-09-08T03:10:31.223Z,0
2017-09-08T03:11:40.374Z,0
2017-09-08T03:12:49.202Z,0
2017-09-08T03:13:58.038Z,0
2017-09-08T03:15:06.865Z,0
2017-09-08T03:16:15.743Z,0
2017-09-08T03:17:24.568Z,0
2017-09-08T03:18:33.397Z,0
2017-09-08T03:19:42.224Z,0
2017-09-08T03:20:51.051Z,0
2017-09-08T03:21:59.877Z,0
2017-09-08T03:23:08.712Z,0
2017-09-08T03:24:17.862Z,0
2017-09-08T03:25:26.684Z,0
2017-09-08T03:26:35.508Z,0
2017-09-08T03:27:44.342Z,0
2017-09-08T03:28:53.163Z,0
2017-09-08T03:30:01.999Z,0
2017-09-08T03:31:10.823Z,0
2017-09-08T03:32:19.650Z,0
2017-09-08T03:33:28.475Z,0
2017-09-08T03:34:37.308Z,0
2017-09-08T03:35:46.136Z,0
2017-09-08T03:36:54.968Z,0
2017-09-08T03:38:03.789Z,0
2017-09-08T03:39:12.615Z,0
2017-09-08T03:40:21.447Z,0
2017-09-08T03:41:30.278Z,0
2017-09-08T03:42:39.104Z,0
2017-09-08T03:43:47.935Z,0
2017-09-08T03:44:56.762Z,0
2017-09-08T03:46:05.592Z,0
2017-09-08T03:47:14.418Z,0
2017-09-08T03:48:23.254Z,0
2017-09-08T03:49:32.080Z,0
2017-09-08T03:50:40.902Z,0
2017-09-08T03:51:49.733Z,0
2017-09-08T03:52:58.561Z,0
2017-09-08T03:54:07.397Z,0
2017-09-08T03:55:16.224Z,0
2017-09-08T03:56:25.048Z,0
2017-09-08T03:57:33.879Z,0
2017-09-08T03:58:42.707Z,0
2017-09-08T03:59:51.533Z,0
2017-09-08T04:01:00.363Z,0
2017-09-08T04:02:09.190Z,0
2017-09-08T04:03:18.014Z,0
2017-09-08T04:04:26.844Z,0
2017-09-08T04:05:35.675Z,0
2017-09-08T04:06:44.503Z,0
2017-09-08T04:07:53.330Z,0
2017-09-08T04:09:02.158Z,0
2017-09-08T04:10:10.989Z,0
2017-09-08T04:11:19.815Z,0
2017-09-08T04:12:28.643Z,0
2017-09-08T04:13:37.474Z,0
2017-09-08T04:14:46.305Z,0
2017-09-08T04:15:55.129Z,0
2017-09-08T04:17:03.957Z,0
2017-09-08T04:18:12.783Z,0
2017-09-08T04:19:21.636Z,0
2017-09-08T04:20:30.443Z,0
2017-09-08T04:21:39.601Z,0
2017-09-08T04:22:48.428Z,0
2017-09-08T04:23:57.573Z,0
2017-09-08T04:25:06.402Z,0
2017-09-08T04:26:15.231Z,0
2017-09-08T04:27:24.061Z,0
2017-09-08T04:28:32.887Z,0
2017-09-08T04:29:41.716Z,0
2017-09-08T04:30:50.548Z,0
2017-09-08T04:31:59.372Z,0
2017-09-08T04:33:08.526Z,0
2017-09-08T04:34:17.352Z,0
2017-09-08T04:35:26.185Z,0
2017-09-08T04:36:35.012Z,0
2017-09-08T04:37:43.843Z,0
2017-09-08T04:38:52.667Z,0
2017-09-08T04:40:01.496Z,0
2017-09-08T04:41:10.328Z,0
2017-09-08T04:42:19.152Z,0
2017-09-08T04:43:27.989Z,0
2017-09-08T04:44:36.814Z,0
2017-09-08T04:45:45.643Z,0
2017-09-08T04:46:54.467Z,0
2017-09-08T04:48:03.303Z,0
2017-09-08T04:49:12.127Z,0
2017-09-08T04:50:20.959Z,0
2017-09-08T04:51:29.782Z,0
2017-09-08T04:52:38.608Z,0
2017-09-08T04:53:47.439Z,0
2017-09-08T04:54:56.277Z,0
2017-09-08T04:56:05.095Z,0
2017-09-08T04:57:13.924Z,0
2017-09-08T04:58:22.752Z,0
2017-09-08T04:59:31.578Z,0
2017-09-08T05:00:40.405Z,0
2017-09-08T05:01:49.237Z,0
2017-09-08T05:02:58.058Z,0
2017-09-08T05:04:06.890Z,0
2017-09-08T05:05:15.718Z,0
2017-09-08T05:06:24.549Z,0
2017-09-08T05:07:33.381Z,0
2017-09-08T05:08:42.209Z,0
2017-09-08T05:09:51.033Z,0
2017-09-08T05:10:59.889Z,0
2017-09-08T05:12:08.689Z,0
2017-09-08T05:13:17.516Z,0
2017-09-08T05:14:26.345Z,0
2017-09-08T05:15:35.175Z,0
2017-09-08T05:16:44.001Z,0
2017-09-08T05:17:52.824Z,0
2017-09-08T05:19:01.653Z,0
2017-09-08T05:20:10.479Z,0
2017-09-08T05:21:19.310Z,0
2017-09-08T05:22:28.141Z,0
2017-09-08T05:23:36.966Z,0
2017-09-08T05:24:45.795Z,0
2017-09-08T05:25:54.631Z,0
2017-09-08T05:27:03.452Z,0
2017-09-08T05:28:12.281Z,0
2017-09-08T05:29:21.109Z,5
2017-09-08T05:30:29.937Z,5
2017-09-08T05:31:38.760Z,5
2017-09-08T05:32:47.596Z,5
2017-09-08T05:33:56.421Z,5
2017-09-08T05:35:05.253Z,5
2017-09-08T05:36:14.079Z,5
2017-09-08T05:37:22.904Z,10
2017-09-08T05:38:31.731Z,10
2017-09-08T05:39:40.557Z,10
2017-09-08T05:40:49.390Z,10
2017-09-08T05:41:58.216Z,10
2017-09-08T05:43:07.049Z,5
2017-09-08T05:44:15.874Z,5
2017-09-08T05:45:24.707Z,5
2017-09-08T05:46:33.530Z,5
2017-09-08T05:47:42.361Z,5
2017-09-08T05:48:51.188Z,5
2017-09-08T05:50:00.022Z,5
2017-09-08T05:51:08.853Z,5
2017-09-08T05:52:17.676Z,5
2017-09-08T05:53:26.510Z,5
2017-09-08T05:54:35.341Z,10
2017-09-08T05:55:44.165Z,10
2017-09-08T05:56:52.994Z,10
2017-09-08T05:58:01.821Z,10
2017-09-08T05:59:10.649Z,15
2017-09-08T06:00:19.478Z,10
2017-09-08T06:01:28.309Z,10
2017-09-08T06:02:37.139Z,10
2017-09-08T06:03:45.969Z,15
2017-09-08T06:04:55.119Z,15
2017-09-08T06:06:03.945Z,15
2017-09-08T06:07:12.776Z,10
2017-09-08T06:08:21.600Z,10
2017-09-08T06:09:30.433Z,10
2017-09-08T06:10:39.259Z,10
2017-09-08T06:11:48.092Z,10
2017-09-08T06:12:56.917Z,10
2017-09-08T06:14:05.740Z,10
2017-09-08T06:15:14.893Z,10
2017-09-08T06:16:23.723Z,10
2017-09-08T06:17:32.552Z,10
2017-09-08T06:18:41.380Z,10
2017-09-08T06:19:50.206Z,10
2017-09-08T06:20:59.032Z,10
2017-09-08T06:22:07.860Z,10
2017-09-08T06:23:16.688Z,10
2017-09-08T06:24:25.518Z,15
2017-09-08T06:25:34.350Z,15
2017-09-08T06:26:43.174Z,15
2017-09-08T06:27:52.005Z,20
2017-09-08T06:29:00.831Z,20
2017-09-08T06:30:09.665Z,25
2017-09-08T06:31:18.492Z,25
2017-09-08T06:32:27.318Z,25
2017-09-08T06:33:36.145Z,25
2017-09-08T06:34:44.977Z,25
2017-09-08T06:35:53.804Z,25
2017-09-08T06:37:02.630Z,25
2017-09-08T06:38:11.463Z,25
2017-09-08T06:39:20.290Z,25
2017-09-08T06:40:29.125Z,20
2017-09-08T06:41:37.947Z,20
2017-09-08T06:42:47.099Z,20
2017-09-08T06:43:55.933Z,20
2017-09-08T06:45:04.763Z,20
2017-09-08T06:46:13.912Z,20
2017-09-08T06:47:22.743Z,20
2017-09-08T06:48:31.573Z,20
2017-09-08T06:49:40.400Z,20
2017-09-08T06:50:49.237Z,20
2017-09-08T06:51:58.068Z,20
2017-09-08T06:53:06.891Z,20
2017-09-08T06:54:15.719Z,20
2017-09-08T06:55:24.547Z,25
2017-09-08T06:56:33.376Z,25
2017-09-08T06:57:42.207Z,25
2017-09-08T06:58:51.038Z,25
2017-09-08T06:59:59.868Z,25
2017-09-08T07:01:08.694Z,25
2017-09-08T07:02:17.521Z,25
2017-09-08T07:03:26.351Z,25
2017-09-08T07:04:35.182Z,25
2017-09-08T07:05:44.011Z,25
2017-09-08T07:06:52.842Z,30
2017-09-08T07:08:01.668Z,35
2017-09-08T07:09:10.500Z,30
2017-09-08T07:10:19.325Z,25
2017-09-08T07:11:28.161Z,25
2017-09-08T07:12:36.992Z,25
2017-09-08T07:13:45.818Z,25
2017-09-08T07:14:54.643Z,30
2017-09-08T07:16:03.473Z,30
2017-09-08T07:17:12.299Z,30
2017-09-08T07:18:21.129Z,30
2017-09-08T07:19:29.957Z,30
2017-09-08T07:20:38.788Z,35
2017-09-08T07:21:47.613Z,40
2017-09-08T07:22:56.448Z,40
2017-09-08T07:24:05.273Z,45
2017-09-08T07:25:14.106Z,45
2017-09-08T07:26:22.931Z,45
2017-09-08T07:27:31.759Z,45
2017-09-08T07:28:40.584Z,40
2017-09-08T07:29:49.419Z,45
2017-09-08T07:30:58.256Z,50
2017-09-08T07:32:07.084Z,50
2017-09-08T07:33:15.915Z,50
2017-09-08T07:34:24.741Z,50
2017-09-08T07:35:33.572Z,50
2017-09-08T07:36:42.398Z,50
2017-09-08T07:37:51.552Z,50
2017-09-08T07:39:00.380Z,50
2017-09-08T07:40:09.213Z,50
2017-09-08T07:41:18.042Z,50
2017-09-08T07:42:26.869Z,50
2017-09-08T07:43:35.699Z,50
2017-09-08T07:44:44.524Z,50
2017-09-08T07:45:53.351Z,50
2017-09-08T07:47:02.182Z,50
2017-09-08T07:48:11.010Z,50
2017-09-08T07:49:19.837Z,50
2017-09-08T07:50:28.665Z,50
2017-09-08T07:51:37.500Z,50
2017-09-08T07:52:46.329Z,55
2017-09-08T07:53:55.162Z,55
2017-09-08T07:55:03.988Z,55
2017-09-08T07:56:12.816Z,55
2017-09-08T07:57:21.645Z,55
2017-09-08T07:58:30.479Z,55
2017-09-08T07:59:39.313Z,55
2017-09-08T08:00:48.464Z,55
2017-09-08T08:01:57.291Z,55
2017-09-08T08:03:06.120Z,55
2017-09-08T08:04:14.949Z,55
2017-09-08T08:05:23.782Z,60
2017-09-08T08:06:32.611Z,55
2017-09-08T08:07:41.438Z,55
2017-09-08T08:08:50.263Z,60
2017-09-08T08:09:59.094Z,60
2017-09-08T08:11:07.922Z,55
2017-09-08T08:12:16.749Z,55
2017-09-08T08:13:25.581Z,50
2017-09-08T08:14:34.732Z,50
2017-09-08T08:15:43.566Z,50
2017-09-08T08:16:52.392Z,50
2017-09-08T08:18:01.228Z,50
2017-09-08T08:19:10.380Z,55
2017-09-08T08:20:19.210Z,55
2017-09-08T08:21:28.045Z,55
2017-09-08T08:22:36.876Z,60
2017-09-08T08:23:45.708Z,55
2017-09-08T08:24:54.535Z,55
2017-09-08T08:26:03.362Z,50
2017-09-08T08:27:12.194Z,50
2017-09-08T08:28:21.029Z,50
2017-09-08T08:29:29.861Z,50
2017-09-08T08:30:38.690Z,45
2017-09-08T08:31:47.518Z,45
2017-09-08T08:32:56.351Z,40
2017-09-08T08:34:05.186Z,40
2017-09-08T08:35:14.016Z,40
2017-09-08T08:36:22.839Z,40
2017-09-08T08:37:31.667Z,40
2017-09-08T08:38:40.497Z,45
2017-09-08T08:39:49.323Z,45
2017-09-08T08:40:58.156Z,45
2017-09-08T08:42:06.987Z,45
2017-09-08T08:43:15.811Z,50
2017-09-08T08:44:24.641Z,50
2017-09-08T08:45:33.470Z,50
2017-09-08T08:46:42.302Z,50
2017-09-08T08:47:51.132Z,50
2017-09-08T08:48:59.956Z,50
2017-09-08T08:50:08.789Z,50
2017-09-08T08:51:17.622Z,45
2017-09-08T08:52:26.451Z,40
2017-09-08T08:53:35.279Z,40
2017-09-08T08:54:44.109Z,35
2017-09-08T08:55:52.940Z,30
2017-09-08T08:57:01.767Z,30
2017-09-08T08:58:10.601Z,25
2017-09-08T08:59:19.428Z,25
2017-09-08T09:00:28.260Z,25
2017-09-08T09:01:37.086Z,25
2017-09-08T09:02:45.918Z,30
2017-09-08T09:03:55.069Z,30
2017-09-08T09:05:03.899Z,30
2017-09-08T09:06:12.732Z,30
2017-09-08T09:07:21.559Z,30
2017-09-08T09:08:30.391Z,35
2017-09-08T09:09:39.221Z,35
2017-09-08T09:10:48.052Z,35
2017-09-08T09:11:56.877Z,40
2017-09-08T09:13:05.717Z,40
2017-09-08T09:14:14.861Z,45
2017-09-08T09:15:23.697Z,45
2017-09-08T09:16:32.524Z,50
2017-09-08T09:17:41.352Z,50
2017-09-08T09:18:50.181Z,50
2017-09-08T09:19:59.010Z,50
2017-09-08T09:21:07.845Z,45
2017-09-08T09:22:16.673Z,45
2017-09-08T09:23:25.510Z,45
2017-09-08T09:24:34.338Z,40
2017-09-08T09:25:43.167Z,40
2017-09-08T09:26:51.997Z,40
2017-09-08T09:28:00.825Z,40
2017-09-08T09:29:09.653Z,40
2017-09-08T09:30:18.484Z,40
2017-09-08T09:31:27.318Z,45
2017-09-08T09:32:36.141Z,45
2017-09-08T09:33:44.974Z,50
2017-09-08T09:34:53.803Z,50
2017-09-08T09:36:02.632Z,50
2017-09-08T09:37:11.465Z,50
2017-09-08T09:38:20.293Z,55
2017-09-08T09:39:29.123Z,50
2017-09-08T09:40:37.955Z,55
2017-09-08T09:41:46.788Z,55
2017-09-08T09:42:55.617Z,55
2017-09-08T09:44:04.449Z,60
2017-09-08T09:45:13.275Z,60
2017-09-08T09:46:22.101Z,65
2017-09-08T09:47:30.933Z,70
2017-09-08T09:48:39.766Z,70
2017-09-08T09:49:48.597Z,65
2017-09-08T09:50:57.431Z,60
2017-09-08T09:52:06.256Z,55
2017-09-08T09:53:15.084Z,55
2017-09-08T09:54:23.914Z,55
2017-09-08T09:55:32.748Z,50
2017-09-08T09:56:41.571Z,45
2017-09-08T09:57:50.404Z,45
2017-09-08T09:58:59.231Z,40
2017-09-08T10:00:08.065Z,40
2017-09-08T10:01:16.897Z,45
2017-09-08T10:02:26.048Z,45
2017-09-08T10:03:34.881Z,45
2017-09-08T10:04:43.706Z,45
2017-09-08T10:05:52.539Z,40
2017-09-08T10:07:01.368Z,40
2017-09-08T10:08:10.200Z,40
2017-09-08T10:09:19.028Z,40
2017-09-08T10:10:27.856Z,45
2017-09-08T10:11:36.680Z,45
2017-09-08T10:12:45.510Z,50
2017-09-08T10:13:54.341Z,50
2017-09-08T10:15:03.170Z,50
2017-09-08T10:16:11.998Z,50
2017-09-08T10:17:20.842Z,50
2017-09-08T10:18:29.675Z,50
2017-09-08T10:19:38.506Z,50
2017-09-08T10:20:47.336Z,50
2017-09-08T10:21:56.165Z,50
2017-09-08T10:23:04.991Z,45
2017-09-08T10:24:13.822Z,40
2017-09-08T10:25:22.655Z,35
2017-09-08T10:26:31.488Z,40
2017-09-08T10:27:40.321Z,40
2017-09-08T10:28:49.142Z,40
2017-09-08T10:29:57.970Z,45
2017-09-08T10:31:06.801Z,40
2017-09-08T10:32:15.634Z,40
2017-09-08T10:33:24.458Z,40
2017-09-08T10:34:33.291Z,40
2017-09-08T10:35:42.121Z,40
2017-09-08T10:36:50.953Z,40
2017-09-08T10:37:59.784Z,35
2017-09-08T10:39:08.612Z,40
2017-09-08T10:40:17.440Z,40
2017-09-08T10:41:26.264Z,45
2017-09-08T10:42:35.097Z,45
2017-09-08T10:43:43.924Z,45
2017-09-08T10:44:52.755Z,50
2017-09-08T10:46:01.588Z,50
2017-09-08T10:47:10.416Z,50
2017-09-08T10:48:19.252Z,50
2017-09-08T10:49:28.080Z,55
2017-09-08T10:50:37.240Z,55
2017-09-08T10:51:46.398Z,55
2017-09-08T10:52:55.232Z,55
2017-09-08T10:54:04.060Z,55
2017-09-08T10:55:12.892Z,55
2017-09-08T10:56:21.725Z,50
2017-09-08T10:57:30.554Z,50
2017-09-08T10:58:39.383Z,55
2017-09-08T10:59:48.215Z,50
2017-09-08T11:00:57.046Z,50
2017-09-08T11:02:05.876Z,55
2017-09-08T11:03:14.712Z,55
2017-09-08T11:04:23.541Z,55
2017-09-08T11:05:32.378Z,60
2017-09-08T11:06:41.204Z,65
2017-09-08T11:07:50.034Z,65
2017-09-08T11:08:58.862Z,65
2017-09-08T11:10:07.692Z,75
2017-09-08T11:11:16.526Z,70
2017-09-08T11:12:25.361Z,70
2017-09-08T11:13:34.196Z,70
2017-09-08T11:14:43.018Z,65
2017-09-08T11:15:51.854Z,65
2017-09-08T11:17:01.010Z,65
2017-09-08T11:18:09.840Z,65
2017-09-08T11:19:18.671Z,60
2017-09-08T11:20:27.826Z,60
2017-09-08T11:21:36.663Z,60
2017-09-08T11:22:45.490Z,55
2017-09-08T11:23:54.321Z,55
2017-09-08T11:25:03.483Z,55
2017-09-08T11:26:12.314Z,55
2017-09-08T11:27:21.146Z,55
2017-09-08T11:28:29.978Z,60
2017-09-08T11:29:38.806Z,55
2017-09-08T11:30:47.634Z,55
2017-09-08T11:31:56.468Z,55
2017-09-08T11:33:05.297Z,55
2017-09-08T11:34:14.131Z,55
2017-09-08T11:35:22.960Z,55
2017-09-08T11:36:31.786Z,55
2017-09-08T11:37:40.619Z,55
2017-09-08T11:38:49.454Z,55
2017-09-08T11:39:58.282Z,55
2017-09-08T11:41:07.458Z,55
2017-09-08T11:42:16.285Z,55
2017-09-08T11:43:25.112Z,50
2017-09-08T11:44:33.944Z,50
2017-09-08T11:45:42.799Z,55
2017-09-08T11:46:51.603Z,55
2017-09-08T11:48:00.435Z,55
2017-09-08T11:49:09.263Z,55
2017-09-08T11:50:18.095Z,60
2017-09-08T11:51:26.927Z,60
2017-09-08T11:52:35.757Z,60
2017-09-08T11:53:44.587Z,60
2017-09-08T11:54:53.414Z,55
2017-09-08T11:56:02.246Z,55
2017-09-08T11:57:11.079Z,55
2017-09-08T11:58:19.914Z,55
2017-09-08T11:59:28.745Z,55
2017-09-08T12:00:37.572Z,55
2017-09-08T12:01:46.397Z,50
2017-09-08T12:02:55.235Z,55
2017-09-08T12:04:04.063Z,50
2017-09-08T12:05:12.901Z,50
2017-09-08T12:06:21.729Z,50
2017-09-08T12:07:30.562Z,50
2017-09-08T12:08:39.423Z,50
2017-09-08T12:09:48.221Z,50
2017-09-08T12:10:57.050Z,50
2017-09-08T12:12:05.886Z,50
2017-09-08T12:13:14.720Z,50
2017-09-08T12:14:23.546Z,45
2017-09-08T12:15:32.378Z,45
2017-09-08T12:16:41.213Z,45
2017-09-08T12:17:50.042Z,45
2017-09-08T12:18:58.872Z,50
2017-09-08T12:20:07.702Z,50
2017-09-08T12:21:16.533Z,45
2017-09-08T12:22:25.687Z,45
2017-09-08T12:23:34.521Z,45
2017-09-08T12:24:43.360Z,45
2017-09-08T12:25:52.196Z,45
2017-09-08T12:27:01.025Z,45
2017-09-08T12:28:09.862Z,40
2017-09-08T12:29:19.011Z,40
2017-09-08T12:30:27.843Z,40
2017-09-08T12:31:36.673Z,35
2017-09-08T12:32:45.503Z,35
2017-09-08T12:33:54.335Z,35
2017-09-08T12:35:03.171Z,35
2017-09-08T12:36:12.322Z,35
2017-09-08T12:37:21.151Z,35
2017-09-08T12:38:29.980Z,35
2017-09-08T12:39:39.136Z,35
2017-09-08T12:40:47.965Z,35
2017-09-08T12:41:56.800Z,40
2017-09-08T12:43:05.629Z,40
2017-09-08T12:44:14.460Z,40
2017-09-08T12:45:23.613Z,45
2017-09-08T12:46:32.445Z,40
2017-09-08T12:47:41.277Z,45
2017-09-08T12:48:50.105Z,45
2017-09-08T12:49:58.929Z,45
2017-09-08T12:51:07.763Z,45
2017-09-08T12:52:16.921Z,45
2017-09-08T12:53:25.751Z,40
2017-09-08T12:54:34.582Z,40
2017-09-08T12:55:43.416Z,40
2017-09-08T12:56:52.243Z,40
2017-09-08T12:58:01.077Z,40
2017-09-08T12:59:09.907Z,35
2017-09-08T13:00:18.743Z,35
2017-09-08T13:01:27.569Z,35
2017-09-08T13:02:36.403Z,30
2017-09-08T13:03:45.234Z,30
2017-09-08T13:04:54.070Z,30
2017-09-08T13:06:03.225Z,30
2017-09-08T13:07:12.058Z,30
2017-09-08T13:08:21.224Z,30
2017-09-08T13:09:30.047Z,35
2017-09-08T13:10:38.880Z,30
2017-09-08T13:11:48.036Z,30
2017-09-08T13:12:56.869Z,30
2017-09-08T13:14:05.699Z,30
2017-09-08T13:15:14.524Z,35
2017-09-08T13:16:23.362Z,30
2017-09-08T13:17:32.188Z,30
2017-09-08T13:18:41.026Z,30
2017-09-08T13:19:49.858Z,30
2017-09-08T13:20:58.688Z,30
2017-09-08T13:22:07.515Z,30
2017-09-08T13:23:16.347Z,30
2017-09-08T13:24:25.176Z,25
2017-09-08T13:25:34.006Z,25
2017-09-08T13:26:42.840Z,25
2017-09-08T13:27:51.668Z,25
2017-09-08T13:29:00.497Z,25
2017-09-08T13:30:09.334Z,25
2017-09-08T13:31:18.164Z,30
2017-09-08T13:32:26.998Z,30
2017-09-08T13:33:35.827Z,30
2017-09-08T13:34:44.657Z,30
2017-09-08T13:35:53.809Z,30
2017-09-08T13:37:02.641Z,30
2017-09-08T13:38:11.473Z,30
2017-09-08T13:39:20.299Z,25
2017-09-08T13:40:29.133Z,25
2017-09-08T13:41:37.962Z,20
2017-09-08T13:42:46.793Z,20
2017-09-08T13:43:55.623Z,20
2017-09-08T13:45:04.449Z,20
2017-09-08T13:46:13.284Z,15
2017-09-08T13:47:22.113Z,15
2017-09-08T13:48:30.950Z,15
2017-09-08T13:49:39.775Z,15
2017-09-08T13:50:48.609Z,15
2017-09-08T13:51:57.439Z,15
2017-09-08T13:53:06.264Z,15
2017-09-08T13:54:15.095Z,15
2017-09-08T13:55:23.920Z,20
2017-09-08T13:56:32.750Z,25
2017-09-08T13:57:41.584Z,25
2017-09-08T13:58:50.412Z,25
2017-09-08T13:59:59.566Z,20
2017-09-08T14:01:08.393Z,25
2017-09-08T14:02:17.224Z,20
2017-09-08T14:03:26.058Z,25
2017-09-08T14:04:34.884Z,30
2017-09-08T14:05:43.712Z,30
2017-09-08T14:06:52.541Z,30
2017-09-08T14:08:01.372Z,35
2017-09-08T14:09:10.529Z,30
2017-09-08T14:10:19.364Z,25
2017-09-08T14:11:28.187Z,20
2017-09-08T14:12:37.015Z,20
2017-09-08T14:13:45.844Z,20
2017-09-08T14:14:54.676Z,20
2017-09-08T14:16:03.504Z,20
2017-09-08T14:17:12.337Z,20
2017-09-08T14:18:21.163Z,20
2017-09-08T14:19:29.989Z,20
2017-09-08T14:20:38.821Z,15
2017-09-08T14:21:47.653Z,15
2017-09-08T14:22:57.135Z,15
2017-09-08T14:24:05.964Z,15
2017-09-08T14:25:14.791Z,10
2017-09-08T14:26:23.948Z,10
2017-09-08T14:27:32.778Z,10
2017-09-08T14:28:41.610Z,10
2017-09-08T14:29:50.438Z,10
2017-09-08T14:30:59.270Z,10
2017-09-08T14:32:08.097Z,10
2017-09-08T14:33:16.926Z,10
2017-09-08T14:34:25.757Z,10
2017-09-08T14:35:34.586Z,10
2017-09-08T14:36:43.415Z,5
2017-09-08T14:37:52.246Z,10
2017-09-08T14:39:01.078Z,10
2017-09-08T14:40:09.912Z,10
2017-09-08T14:41:18.741Z,10
2017-09-08T14:42:27.893Z,15
2017-09-08T14:43:36.721Z,20
2017-09-08T14:44:45.553Z,20
2017-09-08T14:45:54.385Z,15
2017-09-08T14:47:03.209Z,15
2017-09-08T14:48:12.042Z,15
2017-09-08T14:49:20.873Z,15
2017-09-08T14:50:29.703Z,15
2017-09-08T14:51:38.534Z,15
2017-09-08T14:52:47.365Z,15
2017-09-08T14:53:56.193Z,20
2017-09-08T14:55:05.019Z,20
2017-09-08T14:56:13.853Z,15
2017-09-08T14:57:22.682Z,15
2017-09-08T14:58:31.511Z,15
2017-09-08T14:59:40.340Z,15
2017-09-08T15:00:49.169Z,15
2017-09-08T15:01:58.000Z,15
2017-09-08T15:03:06.831Z,15
2017-09-08T15:04:15.998Z,15
2017-09-08T15:05:24.830Z,10
2017-09-08T15:06:33.659Z,15
2017-09-08T15:07:42.487Z,20
2017-09-08T15:08:51.310Z,20
2017-09-08T15:10:00.144Z,20
2017-09-08T15:11:08.972Z,20
2017-09-08T15:12:17.797Z,25
2017-09-08T15:13:26.630Z,25
2017-09-08T15:14:35.461Z,20
2017-09-08T15:15:44.293Z,20
2017-09-08T15:16:53.125Z,25
2017-09-08T15:18:01.956Z,25
2017-09-08T15:19:10.838Z,25
2017-09-08T15:20:19.663Z,25
2017-09-08T15:21:28.494Z,25
2017-09-08T15:22:37.324Z,20
2017-09-08T15:23:46.157Z,15
2017-09-08T15:24:54.985Z,10
2017-09-08T15:26:03.811Z,10
2017-09-08T15:27:12.645Z,10
2017-09-08T15:28:21.475Z,5
2017-09-08T15:29:30.298Z,5
2017-09-08T15:30:39.129Z,5
2017-09-08T15:31:47.959Z,5
2017-09-08T15:32:56.784Z,5
2017-09-08T15:34:05.614Z,5
2017-09-08T15:35:14.448Z,10
2017-09-08T15:36:23.274Z,10
2017-09-08T15:37:32.106Z,10
2017-09-08T15:38:40.942Z,10
2017-09-08T15:39:49.770Z,10
2017-09-08T15:40:58.603Z,10
2017-09-08T15:42:07.431Z,10
2017-09-08T15:43:16.259Z,10
2017-09-08T15:44:25.091Z,10
2017-09-08T15:45:33.918Z,10
2017-09-08T15:46:42.747Z,10
2017-09-08T15:47:51.581Z,10
2017-09-08T15:49:00.409Z,10
2017-09-08T15:50:09.234Z,10
2017-09-08T15:51:18.067Z,10
2017-09-08T15:52:26.893Z,10
2017-09-08T15:53:35.727Z,10
2017-09-08T15:54:44.553Z,10
2017-09-08T15:55:53.382Z,10
2017-09-08T15:57:02.213Z,10
2017-09-08T15:58:11.042Z,10
2017-09-08T15:59:19.874Z,10
2017-09-08T16:00:28.702Z,10
2017-09-08T16:01:37.529Z,10
2017-09-08T16:02:46.359Z,10
2017-09-08T16:03:55.196Z,10
2017-09-08T16:05:04.025Z,10
2017-09-08T16:06:12.851Z,10
2017-09-08T16:07:21.682Z,10
2017-09-08T16:08:30.513Z,10
2017-09-08T16:09:39.345Z,10
2017-09-08T16:10:48.171Z,10
2017-09-08T16:11:56.999Z,10
2017-09-08T16:13:05.830Z,10
2017-09-08T16:14:14.664Z,10
2017-09-08T16:15:23.494Z,10
2017-09-08T16:16:32.316Z,5
2017-09-08T16:17:41.146Z,5
2017-09-08T16:18:49.976Z,5
2017-09-08T16:19:59.131Z,5
2017-09-08T16:21:07.960Z,5
2017-09-08T16:22:16.789Z,5
2017-09-08T16:23:25.616Z,5
2017-09-08T16:24:34.443Z,5
2017-09-08T16:25:43.274Z,5
2017-09-08T16:26:52.105Z,5
2017-09-08T16:28:00.932Z,5
2017-09-08T16:29:09.760Z,5
2017-09-08T16:30:18.584Z,5
2017-09-08T16:31:27.419Z,0
2017-09-08T16:32:36.247Z,0
2017-09-08T16:33:45.082Z,0
2017-09-08T16:34:53.911Z,0